Аэропорт: Гостомель. Киев

ICAO: UKKM

METAR:
2020-08-13 10:30:00
UKKM 131030Z 32004MPS 270V010 9999 BKN045 18/08 Q1018 R33/CLRD70 NOSIG
METAR:
2020-08-13 05:02:00
TAF UKKM 130502Z 1306/1406 33005MPS 9999 BKN040 BECMG 1316/1318 35003MPS